Time;durP1;ratioP1;P1;durP2;ratioP2;P2;SDS_P1;SDS_P2;PMS_P1;PMS_P2;Temp;Humidity;BMP_temperature;BMP_pressure;BME280_temperature;BME280_humidity;BME280_pressure;Samples;Min_cycle;Max_cycle;Signal;HPM_P1;HPM_P2
2022/08/02 00:00:54;;;;;;;;;;;25.60;52.60;;;;;;5020807;28;19932;-69
2022/08/02 00:03:20;;;;;;;;;;;25.60;52.70;;;;;;5026295;28;19935;-69
2022/08/02 00:05:48;;;;;;;;;;;25.60;52.80;;;;;;5030990;28;19926;-70
2022/08/02 00:08:15;;;;;;;;;;;25.60;52.90;;;;;;5022919;28;19933;-70
2022/08/02 00:10:41;;;;;;;;;;;25.50;52.90;;;;;;5041321;28;20319;-69
2022/08/02 00:13:08;;;;;;;;;;;25.50;53.00;;;;;;5037013;28;19932;-71
2022/08/02 00:15:34;;;;;;;;;;;25.50;53.10;;;;;;5016030;28;19933;-70
2022/08/02 00:18:01;;;;;;;;;;;25.40;53.20;;;;;;5021612;28;19933;-69
2022/08/02 00:20:28;;;;;;;;;;;25.40;53.20;;;;;;5029248;28;19925;-69
2022/08/02 00:22:55;;;;;;;;;;;25.40;53.50;;;;;;5035800;28;19920;-69
2022/08/02 00:25:22;;;;;;;;;;;25.40;53.40;;;;;;5022513;28;19921;-69
2022/08/02 00:27:49;;;;;;;;;;;25.30;53.40;;;;;;5021581;28;19929;-71
2022/08/02 00:30:15;;;;;;;;;;;25.30;53.50;;;;;;5025804;28;19921;-72
2022/08/02 00:32:42;;;;;;;;;;;25.30;53.60;;;;;;5023951;28;19925;-70
2022/08/02 00:35:08;;;;;;;;;;;25.30;53.60;;;;;;5039957;28;19921;-70
2022/08/02 00:37:38;;;;;;;;;;;25.20;53.80;;;;;;5022474;28;19921;-70
2022/08/02 00:40:06;;;;;;;;;;;25.20;53.80;;;;;;5036379;28;20010;-69
2022/08/02 00:42:33;;;;;;;;;;;25.20;54.00;;;;;;5027931;28;20552;-70
2022/08/02 00:45:00;;;;;;;;;;;25.20;54.20;;;;;;5018012;28;19952;-69
2022/08/02 00:47:26;;;;;;;;;;;25.10;54.20;;;;;;5017804;28;19921;-70
2022/08/02 00:49:53;;;;;;;;;;;25.10;54.10;;;;;;5031464;28;19920;-71
2022/08/02 00:52:19;;;;;;;;;;;25.10;54.10;;;;;;5024635;28;19929;-70
2022/08/02 00:54:46;;;;;;;;;;;25.10;54.30;;;;;;5024775;28;20003;-70
2022/08/02 00:57:13;;;;;;;;;;;25.00;54.30;;;;;;5031704;28;19949;-69
2022/08/02 00:59:41;;;;;;;;;;;25.00;54.40;;;;;;5025865;28;19925;-71
2022/08/02 01:02:07;;;;;;;;;;;25.00;54.40;;;;;;5023610;28;19960;-70
2022/08/02 01:04:34;;;;;;;;;;;24.90;54.50;;;;;;5035581;28;19929;-69
2022/08/02 01:07:02;;;;;;;;;;;24.90;54.40;;;;;;5018981;28;19936;-69
2022/08/02 01:09:29;;;;;;;;;;;24.90;54.60;;;;;;5034267;28;19931;-70
2022/08/02 01:11:56;;;;;;;;;;;24.90;54.70;;;;;;5027563;28;19926;-70
2022/08/02 01:14:24;;;;;;;;;;;24.90;54.80;;;;;;5029749;28;20324;-73
2022/08/02 01:16:53;;;;;;;;;;;24.80;54.60;;;;;;5020282;28;20359;-71
2022/08/02 01:19:29;;;;;;;;;;;24.80;54.80;;;;;;5024729;28;20373;-72
2022/08/02 01:22:05;;;;;;;;;;;24.70;54.90;;;;;;5034448;28;19937;-69
2022/08/02 01:24:38;;;;;;;;;;;24.70;54.90;;;;;;5039918;28;19933;-69
2022/08/02 01:27:11;;;;;;;;;;;24.70;54.90;;;;;;5034423;28;19937;-71
2022/08/02 01:29:41;;;;;;;;;;;24.70;54.90;;;;;;5023067;28;19933;-69
2022/08/02 01:32:09;;;;;;;;;;;24.60;54.80;;;;;;5019406;28;20300;-70
2022/08/02 01:34:37;;;;;;;;;;;24.60;55.40;;;;;;5021877;28;19932;-71
2022/08/02 01:37:05;;;;;;;;;;;24.60;54.90;;;;;;5035019;28;19932;-70
2022/08/02 01:39:33;;;;;;;;;;;24.60;54.80;;;;;;5027653;28;19925;-69
2022/08/02 01:42:01;;;;;;;;;;;24.50;54.90;;;;;;5031874;28;19936;-69
2022/08/02 01:44:30;;;;;;;;;;;24.50;55.00;;;;;;5014012;28;19925;-69
2022/08/02 01:47:00;;;;;;;;;;;24.50;55.00;;;;;;5020354;28;19933;-69
2022/08/02 01:49:27;;;;;;;;;;;24.50;55.10;;;;;;5031878;28;19948;-70
2022/08/02 01:54:38;;;;;;;;;;;24.40;55.00;;;;;;5021174;28;20481;-70
2022/08/02 01:57:09;;;;;;;;;;;24.40;55.10;;;;;;5036518;28;21300;-71
2022/08/02 01:59:36;;;;;;;;;;;24.40;55.20;;;;;;5018822;28;19940;-71
2022/08/02 02:02:07;;;;;;;;;;;24.40;55.10;;;;;;5017044;28;20586;-71
2022/08/02 02:04:35;;;;;;;;;;;24.40;55.80;;;;;;5037308;28;19929;-70
2022/08/02 02:07:02;;;;;;;;;;;24.40;55.20;;;;;;5018896;28;20388;-69
2022/08/02 02:09:31;;;;;;;;;;;24.30;55.20;;;;;;5036995;28;20297;-70
2022/08/02 02:11:58;;;;;;;;;;;24.30;55.20;;;;;;5034774;28;20356;-70
2022/08/02 02:14:25;;;;;;;;;;;24.30;55.30;;;;;;5031291;28;19932;-70
2022/08/02 02:16:53;;;;;;;;;;;24.30;55.20;;;;;;5019814;28;19929;-70
2022/08/02 02:19:21;;;;;;;;;;;24.30;55.40;;;;;;5020811;28;19932;-70
2022/08/02 02:21:48;;;;;;;;;;;24.30;55.40;;;;;;5032015;28;19929;-70
2022/08/02 02:24:15;;;;;;;;;;;24.30;55.40;;;;;;5037717;28;19929;-71
2022/08/02 02:26:42;;;;;;;;;;;24.30;55.50;;;;;;5028373;28;19937;-70
2022/08/02 02:29:10;;;;;;;;;;;24.20;55.50;;;;;;5017019;28;19933;-70
2022/08/02 02:31:38;;;;;;;;;;;24.20;55.60;;;;;;5019494;28;19933;-68
2022/08/02 02:34:05;;;;;;;;;;;24.20;55.60;;;;;;5033634;28;19974;-71
2022/08/02 02:36:34;;;;;;;;;;;24.20;55.60;;;;;;5023928;28;19929;-69
2022/08/02 02:39:02;;;;;;;;;;;24.20;55.80;;;;;;5037731;28;19925;-72
2022/08/02 02:41:29;;;;;;;;;;;24.10;55.90;;;;;;5034131;28;19926;-70
2022/08/02 02:43:58;;;;;;;;;;;24.10;55.90;;;;;;5019918;28;19925;-70
2022/08/02 02:46:25;;;;;;;;;;;24.10;55.90;;;;;;5026455;28;19933;-68
2022/08/02 02:48:51;;;;;;;;;;;24.10;55.90;;;;;;5031548;28;19932;-70
2022/08/02 02:51:21;;;;;;;;;;;24.00;56.10;;;;;;5030244;28;19929;-69
2022/08/02 02:53:49;;;;;;;;;;;24.00;56.10;;;;;;5019344;28;19925;-70
2022/08/02 02:56:16;;;;;;;;;;;24.00;56.10;;;;;;5030835;28;19960;-69
2022/08/02 02:58:43;;;;;;;;;;;24.00;56.20;;;;;;5020782;28;20123;-70
2022/08/02 03:01:29;;;;;;;;;;;24.00;56.20;;;;;;5020743;28;19929;-69
2022/08/02 03:03:57;;;;;;;;;;;24.00;56.20;;;;;;5039886;28;19955;-71
2022/08/02 03:06:24;;;;;;;;;;;23.90;56.20;;;;;;5028549;28;19933;-68
2022/08/02 03:08:51;;;;;;;;;;;23.90;56.30;;;;;;5028460;28;20422;-70
2022/08/02 03:11:18;;;;;;;;;;;23.90;56.30;;;;;;5043511;28;19929;-70
2022/08/02 03:13:45;;;;;;;;;;;23.80;56.30;;;;;;5022796;28;19929;-70
2022/08/02 03:16:12;;;;;;;;;;;23.90;56.40;;;;;;5019636;28;20318;-70
2022/08/02 03:18:40;;;;;;;;;;;23.80;56.40;;;;;;5018928;28;20501;-69
2022/08/02 03:21:07;;;;;;;;;;;23.80;56.40;;;;;;5027907;28;19925;-72
2022/08/02 03:23:34;;;;;;;;;;;23.80;56.40;;;;;;5031654;28;20422;-70
2022/08/02 03:26:02;;;;;;;;;;;23.80;56.50;;;;;;5042707;28;19933;-72
2022/08/02 03:28:29;;;;;;;;;;;23.80;56.60;;;;;;5031386;28;20305;-70
2022/08/02 03:30:55;;;;;;;;;;;23.70;56.50;;;;;;5040508;28;19933;-70
2022/08/02 03:33:23;;;;;;;;;;;23.70;56.70;;;;;;5026626;28;19951;-71
2022/08/02 03:35:50;;;;;;;;;;;23.70;56.70;;;;;;5030863;28;20305;-71
2022/08/02 03:38:18;;;;;;;;;;;23.70;56.70;;;;;;5035070;28;20389;-70
2022/08/02 03:40:45;;;;;;;;;;;23.60;56.70;;;;;;5041149;28;19925;-71
2022/08/02 03:43:13;;;;;;;;;;;23.70;56.80;;;;;;5022233;28;19933;-69
2022/08/02 03:45:42;;;;;;;;;;;23.70;56.80;;;;;;5019869;28;20452;-71
2022/08/02 03:48:08;;;;;;;;;;;23.60;56.80;;;;;;5039221;28;19925;-69
2022/08/02 03:50:36;;;;;;;;;;;23.60;56.80;;;;;;5022970;28;19932;-69
2022/08/02 03:53:02;;;;;;;;;;;23.60;57.00;;;;;;5020240;28;20492;-70
2022/08/02 03:55:29;;;;;;;;;;;23.60;57.00;;;;;;5026456;28;19933;-70
2022/08/02 03:57:56;;;;;;;;;;;23.50;57.10;;;;;;5033396;28;19936;-71
2022/08/02 04:00:24;;;;;;;;;;;23.50;57.20;;;;;;5019074;28;19929;-72
2022/08/02 04:02:51;;;;;;;;;;;23.50;57.20;;;;;;5027699;28;20403;-70
2022/08/02 04:05:17;;;;;;;;;;;23.50;57.20;;;;;;5025570;28;20393;-69
2022/08/02 04:07:44;;;;;;;;;;;23.40;57.20;;;;;;5021291;28;19925;-69
2022/08/02 04:10:11;;;;;;;;;;;23.40;57.30;;;;;;5034184;28;19925;-70
2022/08/02 04:12:37;;;;;;;;;;;23.40;57.40;;;;;;5037998;28;20391;-70
2022/08/02 04:15:05;;;;;;;;;;;23.40;57.40;;;;;;5024958;28;19936;-69
2022/08/02 04:17:34;;;;;;;;;;;23.40;57.40;;;;;;5017185;28;19925;-68
2022/08/02 04:20:03;;;;;;;;;;;23.40;57.50;;;;;;5022684;28;19941;-70
2022/08/02 04:22:33;;;;;;;;;;;23.30;57.50;;;;;;5034183;28;19936;-69
2022/08/02 04:25:01;;;;;;;;;;;23.30;57.70;;;;;;5030911;28;19933;-70
2022/08/02 04:27:28;;;;;;;;;;;23.30;57.70;;;;;;5028779;28;20286;-69
2022/08/02 04:29:55;;;;;;;;;;;23.30;57.80;;;;;;5022336;28;19933;-69
2022/08/02 04:32:22;;;;;;;;;;;23.20;57.90;;;;;;5033940;28;19929;-71
2022/08/02 04:34:50;;;;;;;;;;;23.20;57.90;;;;;;5028989;28;20601;-69
2022/08/02 04:37:16;;;;;;;;;;;23.20;57.90;;;;;;5029775;28;19925;-70
2022/08/02 04:39:43;;;;;;;;;;;23.20;57.90;;;;;;5032213;28;20408;-70
2022/08/02 04:42:10;;;;;;;;;;;23.20;58.50;;;;;;5033883;28;19937;-70
2022/08/02 04:44:36;;;;;;;;;;;23.20;58.00;;;;;;5019432;28;19925;-71
2022/08/02 04:47:04;;;;;;;;;;;23.10;58.10;;;;;;5030120;28;19939;-70
2022/08/02 04:49:31;;;;;;;;;;;23.20;58.10;;;;;;5032675;28;19999;-70
2022/08/02 04:51:59;;;;;;;;;;;23.10;58.20;;;;;;5015132;28;19951;-71
2022/08/02 04:54:26;;;;;;;;;;;23.10;58.10;;;;;;5020802;28;19929;-70
2022/08/02 04:56:52;;;;;;;;;;;23.10;58.10;;;;;;5041580;28;20693;-70
2022/08/02 04:59:19;;;;;;;;;;;23.00;58.20;;;;;;5013774;28;19933;-70
2022/08/02 05:01:46;;;;;;;;;;;23.00;58.20;;;;;;5021353;28;19932;-70
2022/08/02 05:04:12;;;;;;;;;;;23.00;58.20;;;;;;5031022;28;19929;-70
2022/08/02 05:06:39;;;;;;;;;;;23.00;58.30;;;;;;5016272;28;19945;-70
2022/08/02 05:09:07;;;;;;;;;;;23.00;58.30;;;;;;5029242;28;20007;-70
2022/08/02 05:11:33;;;;;;;;;;;23.00;58.40;;;;;;5043705;28;19933;-69
2022/08/02 05:14:00;;;;;;;;;;;23.00;58.50;;;;;;5030210;28;19930;-69
2022/08/02 05:16:27;;;;;;;;;;;22.90;58.40;;;;;;5017134;28;19925;-72
2022/08/02 05:18:53;;;;;;;;;;;22.90;58.50;;;;;;5021531;28;19929;-70
2022/08/02 05:21:20;;;;;;;;;;;22.90;58.50;;;;;;5030725;28;19925;-69
2022/08/02 05:23:46;;;;;;;;;;;22.90;58.60;;;;;;5033467;28;19925;-69
2022/08/02 05:26:14;;;;;;;;;;;22.90;58.70;;;;;;5038003;28;19932;-72
2022/08/02 05:28:41;;;;;;;;;;;22.90;58.80;;;;;;5019871;28;19929;-70
2022/08/02 05:31:07;;;;;;;;;;;22.80;58.80;;;;;;5017866;28;20373;-71
2022/08/02 05:33:34;;;;;;;;;;;22.90;58.80;;;;;;5025191;28;19936;-71
2022/08/02 05:36:00;;;;;;;;;;;22.90;58.80;;;;;;5028388;28;19929;-70
2022/08/02 05:38:29;;;;;;;;;;;22.90;58.90;;;;;;5030221;28;20377;-69
2022/08/02 05:40:56;;;;;;;;;;;22.80;58.90;;;;;;5035233;28;19925;-73
2022/08/02 05:43:24;;;;;;;;;;;22.80;58.90;;;;;;5021474;28;19929;-70
2022/08/02 05:45:52;;;;;;;;;;;22.80;58.90;;;;;;5016338;28;19925;-71
2022/08/02 05:48:18;;;;;;;;;;;22.80;58.90;;;;;;5021628;28;19931;-71
2022/08/02 05:50:48;;;;;;;;;;;22.80;58.90;;;;;;5033124;28;20288;-70
2022/08/02 05:53:18;;;;;;;;;;;22.80;58.90;;;;;;5020260;28;19932;-70
2022/08/02 05:55:47;;;;;;;;;;;22.80;59.00;;;;;;5025821;28;19928;-70
2022/08/02 05:58:18;;;;;;;;;;;22.80;59.00;;;;;;5026726;28;19932;-71
2022/08/02 06:00:49;;;;;;;;;;;22.80;58.90;;;;;;5019571;28;19925;-71
2022/08/02 06:03:20;;;;;;;;;;;22.80;58.90;;;;;;5018562;28;19933;-72
2022/08/02 06:05:50;;;;;;;;;;;22.80;59.00;;;;;;5031826;28;19928;-70
2022/08/02 06:08:18;;;;;;;;;;;22.70;58.90;;;;;;5032244;28;19933;-72
2022/08/02 06:10:46;;;;;;;;;;;22.70;59.00;;;;;;5036443;28;19929;-70
2022/08/02 06:13:15;;;;;;;;;;;22.70;59.00;;;;;;5027100;28;20297;-70
2022/08/02 06:15:41;;;;;;;;;;;22.70;58.90;;;;;;5029437;28;20012;-70
2022/08/02 06:18:09;;;;;;;;;;;22.70;58.90;;;;;;5027823;28;19921;-69
2022/08/02 06:20:36;;;;;;;;;;;22.70;58.90;;;;;;5018120;28;19932;-70
2022/08/02 06:23:04;;;;;;;;;;;22.70;59.00;;;;;;5035358;28;19924;-71
2022/08/02 06:25:31;;;;;;;;;;;22.70;59.00;;;;;;5027302;28;20481;-70
2022/08/02 06:27:58;;;;;;;;;;;22.70;59.00;;;;;;5029581;28;19925;-70
2022/08/02 06:30:24;;;;;;;;;;;22.70;59.00;;;;;;5018762;28;19932;-69
2022/08/02 06:32:51;;;;;;;;;;;22.70;59.00;;;;;;5013434;28;19942;-70
2022/08/02 06:35:19;;;;;;;;;;;22.70;59.10;;;;;;5022735;28;19956;-69
2022/08/02 06:37:50;;;;;;;;;;;22.70;59.10;;;;;;5035192;28;19921;-70
2022/08/02 06:40:21;;;;;;;;;;;22.80;59.10;;;;;;5037540;28;19928;-69
2022/08/02 06:42:49;;;;;;;;;;;22.70;59.10;;;;;;5027897;28;19925;-69
2022/08/02 06:45:16;;;;;;;;;;;22.70;59.00;;;;;;5023961;28;20329;-69
2022/08/02 06:47:42;;;;;;;;;;;22.70;58.90;;;;;;5030369;28;19928;-71
2022/08/02 06:50:09;;;;;;;;;;;22.70;59.00;;;;;;5034581;28;19932;-69
2022/08/02 06:52:37;;;;;;;;;;;22.70;59.00;;;;;;5023569;28;19929;-70
2022/08/02 06:55:04;;;;;;;;;;;22.80;59.00;;;;;;5038109;28;19945;-69
2022/08/02 06:57:31;;;;;;;;;;;22.80;59.00;;;;;;5037253;28;20412;-71
2022/08/02 07:00:00;;;;;;;;;;;22.80;59.50;;;;;;5016972;28;19936;-70
2022/08/02 07:02:27;;;;;;;;;;;22.80;58.80;;;;;;5015936;28;19977;-70
2022/08/02 07:04:54;;;;;;;;;;;22.80;58.80;;;;;;5037153;28;19933;-71
2022/08/02 07:07:20;;;;;;;;;;;22.80;58.80;;;;;;5040220;28;19929;-70
2022/08/02 07:09:50;;;;;;;;;;;22.80;58.80;;;;;;5042210;28;20416;-71
2022/08/02 07:12:16;;;;;;;;;;;22.90;58.80;;;;;;5039999;28;20002;-69
2022/08/02 07:14:43;;;;;;;;;;;22.90;58.80;;;;;;5032870;28;19944;-70
2022/08/02 07:17:09;;;;;;;;;;;22.90;58.70;;;;;;5012854;28;19925;-71
2022/08/02 07:19:36;;;;;;;;;;;22.90;58.70;;;;;;5025577;28;19950;-71
2022/08/02 07:22:02;;;;;;;;;;;22.90;58.60;;;;;;5041454;28;19925;-70
2022/08/02 07:24:29;;;;;;;;;;;22.90;58.60;;;;;;5043005;28;19979;-70
2022/08/02 07:26:57;;;;;;;;;;;23.00;58.50;;;;;;5026309;28;19932;-70
2022/08/02 07:29:24;;;;;;;;;;;23.00;58.50;;;;;;5029487;28;19933;-69
2022/08/02 07:31:50;;;;;;;;;;;23.00;58.40;;;;;;5019841;28;20017;-70
2022/08/02 07:34:17;;;;;;;;;;;23.00;58.40;;;;;;5019065;28;19929;-70
2022/08/02 07:36:44;;;;;;;;;;;23.00;58.40;;;;;;5029330;28;19932;-72
2022/08/02 07:39:10;;;;;;;;;;;23.00;58.40;;;;;;5036783;28;19931;-70
2022/08/02 07:41:37;;;;;;;;;;;23.00;58.40;;;;;;5028673;28;19926;-70
2022/08/02 07:44:05;;;;;;;;;;;23.00;58.40;;;;;;5020199;28;19956;-69
2022/08/02 07:46:32;;;;;;;;;;;23.00;58.30;;;;;;5020087;28;19935;-69
2022/08/02 07:48:59;;;;;;;;;;;23.10;58.30;;;;;;5033192;28;19932;-70
2022/08/02 07:51:25;;;;;;;;;;;23.10;58.30;;;;;;5025942;28;19925;-68
2022/08/02 07:53:52;;;;;;;;;;;23.10;58.30;;;;;;5026010;28;19933;-71
2022/08/02 07:56:18;;;;;;;;;;;23.20;58.30;;;;;;5040746;28;19931;-71
2022/08/02 07:58:45;;;;;;;;;;;23.20;58.30;;;;;;5020839;28;19925;-70
2022/08/02 08:01:13;;;;;;;;;;;23.20;58.20;;;;;;5022012;28;19925;-70
2022/08/02 08:03:39;;;;;;;;;;;23.20;58.20;;;;;;5034727;28;19937;-71
2022/08/02 08:06:06;;;;;;;;;;;23.30;58.20;;;;;;5030682;28;20333;-71
2022/08/02 08:08:33;;;;;;;;;;;23.30;58.10;;;;;;5028514;28;19932;-70
2022/08/02 08:11:00;;;;;;;;;;;23.30;58.10;;;;;;5031174;28;20135;-71
2022/08/02 08:13:26;;;;;;;;;;;23.40;58.10;;;;;;5028066;28;20055;-70
2022/08/02 08:15:53;;;;;;;;;;;23.40;58.10;;;;;;5033322;28;20378;-69
2022/08/02 08:18:21;;;;;;;;;;;23.40;57.90;;;;;;5020344;28;19934;-73
2022/08/02 08:20:48;;;;;;;;;;;23.40;57.80;;;;;;5037167;28;19929;-72
2022/08/02 08:23:14;;;;;;;;;;;23.40;57.70;;;;;;5029645;28;19929;-70
2022/08/02 08:25:41;;;;;;;;;;;23.50;57.80;;;;;;5039018;28;19929;-71
2022/08/02 08:28:07;;;;;;;;;;;23.50;57.70;;;;;;5028362;28;19964;-70
2022/08/02 08:30:34;;;;;;;;;;;23.50;57.60;;;;;;5023442;28;20514;-70
2022/08/02 08:33:00;;;;;;;;;;;23.50;57.50;;;;;;5020521;28;19937;-69
2022/08/02 08:35:28;;;;;;;;;;;23.60;57.60;;;;;;5026090;28;19933;-70
2022/08/02 08:37:55;;;;;;;;;;;23.60;57.60;;;;;;5035862;28;19932;-71
2022/08/02 08:40:21;;;;;;;;;;;23.70;57.60;;;;;;5038549;28;19932;-69
2022/08/02 08:42:48;;;;;;;;;;;23.70;57.50;;;;;;5023820;28;19972;-69
2022/08/02 08:45:16;;;;;;;;;;;23.70;57.40;;;;;;5018113;28;20255;-69
2022/08/02 08:47:43;;;;;;;;;;;23.80;57.30;;;;;;5035797;28;19929;-70
2022/08/02 08:50:11;;;;;;;;;;;23.80;57.30;;;;;;5024806;28;19929;-70
2022/08/02 08:52:42;;;;;;;;;;;23.80;57.20;;;;;;5019127;28;19925;-70
2022/08/02 08:55:09;;;;;;;;;;;23.90;57.00;;;;;;5035043;28;20373;-70
2022/08/02 08:57:38;;;;;;;;;;;23.90;57.10;;;;;;5015496;28;20449;-71
2022/08/02 09:00:05;;;;;;;;;;;24.00;57.00;;;;;;5022814;28;19925;-67
2022/08/02 09:02:32;;;;;;;;;;;24.00;56.90;;;;;;5019429;28;20210;-69
2022/08/02 09:04:59;;;;;;;;;;;24.00;56.60;;;;;;5022620;28;19928;-70
2022/08/02 09:07:25;;;;;;;;;;;24.10;56.60;;;;;;5028737;28;19921;-70
2022/08/02 09:09:53;;;;;;;;;;;24.10;56.60;;;;;;5036995;28;19925;-70
2022/08/02 09:12:23;;;;;;;;;;;24.20;56.40;;;;;;5015762;28;19930;-70
2022/08/02 09:14:50;;;;;;;;;;;24.20;56.50;;;;;;5024844;28;19926;-69
2022/08/02 09:17:17;;;;;;;;;;;24.30;56.40;;;;;;5017548;28;19933;-69
2022/08/02 09:19:43;;;;;;;;;;;24.30;56.30;;;;;;5022279;28;19941;-73
2022/08/02 09:22:11;;;;;;;;;;;24.30;56.00;;;;;;5020022;28;20433;-71
2022/08/02 09:24:41;;;;;;;;;;;24.40;55.90;;;;;;5027558;28;19936;-69
2022/08/02 09:27:12;;;;;;;;;;;24.40;55.90;;;;;;5029026;28;19932;-72
2022/08/02 09:29:38;;;;;;;;;;;24.50;56.40;;;;;;5026605;28;19925;-69
2022/08/02 09:32:05;;;;;;;;;;;24.60;55.80;;;;;;5019817;28;19929;-70
2022/08/02 09:34:43;;;;;;;;;;;24.60;55.80;;;;;;5018057;28;19948;-72
2022/08/02 09:37:21;;;;;;;;;;;24.70;55.60;;;;;;5023943;28;19929;-70
2022/08/02 09:39:47;;;;;;;;;;;24.70;55.40;;;;;;5024084;28;19932;-70
2022/08/02 09:42:15;;;;;;;;;;;24.80;55.40;;;;;;5026546;28;20328;-71
2022/08/02 09:44:52;;;;;;;;;;;24.80;55.30;;;;;;5017296;28;20416;-69
2022/08/02 09:47:18;;;;;;;;;;;24.90;55.00;;;;;;5019747;28;19948;-70
2022/08/02 09:49:45;;;;;;;;;;;24.90;55.00;;;;;;5025729;28;20303;-70
2022/08/02 09:52:12;;;;;;;;;;;25.00;54.70;;;;;;5015906;28;20329;-69
2022/08/02 09:54:39;;;;;;;;;;;25.10;55.00;;;;;;5020234;28;19926;-69
2022/08/02 09:57:06;;;;;;;;;;;25.10;54.40;;;;;;5016857;28;19960;-71
2022/08/02 09:59:34;;;;;;;;;;;25.20;54.30;;;;;;5019332;28;19979;-70
2022/08/02 10:02:01;;;;;;;;;;;25.30;54.10;;;;;;5016781;28;19987;-71
2022/08/02 10:04:29;;;;;;;;;;;25.30;54.00;;;;;;5019406;28;19949;-70
2022/08/02 10:06:58;;;;;;;;;;;25.40;53.90;;;;;;5021817;28;20333;-69
2022/08/02 10:09:24;;;;;;;;;;;25.40;53.70;;;;;;5033416;28;19935;-70
2022/08/02 10:11:51;;;;;;;;;;;25.50;53.90;;;;;;5028095;28;19925;-69
2022/08/02 10:14:19;;;;;;;;;;;25.60;53.70;;;;;;5038763;28;19925;-70
2022/08/02 10:16:47;;;;;;;;;;;25.60;53.80;;;;;;5019290;28;19936;-70
2022/08/02 10:19:14;;;;;;;;;;;25.70;53.50;;;;;;5015794;28;19933;-73
2022/08/02 10:21:44;;;;;;;;;;;25.70;53.30;;;;;;5036272;28;19929;-71
2022/08/02 10:24:11;;;;;;;;;;;25.80;53.10;;;;;;5038541;28;19931;-71
2022/08/02 10:26:39;;;;;;;;;;;25.90;53.20;;;;;;5024415;28;19926;-72
2022/08/02 10:29:08;;;;;;;;;;;25.90;52.90;;;;;;5016516;28;19925;-71
2022/08/02 10:31:36;;;;;;;;;;;25.90;52.70;;;;;;5020213;28;19933;-71
2022/08/02 10:34:07;;;;;;;;;;;25.90;52.60;;;;;;5021733;28;19924;-70
2022/08/02 10:36:35;;;;;;;;;;;26.00;52.50;;;;;;5030323;28;19929;-72
2022/08/02 10:39:01;;;;;;;;;;;26.00;52.40;;;;;;5034015;28;19940;-70
2022/08/02 10:41:39;;;;;;;;;;;26.00;52.30;;;;;;5034248;28;19925;-70
2022/08/02 10:44:06;;;;;;;;;;;26.10;52.70;;;;;;5024397;28;19929;-70
2022/08/02 10:46:34;;;;;;;;;;;26.10;52.30;;;;;;5020287;28;20300;-71
2022/08/02 10:49:01;;;;;;;;;;;26.10;52.10;;;;;;5033538;28;19929;-70
2022/08/02 10:51:52;;;;;;;;;;;26.20;52.10;;;;;;5016573;28;19932;-69
2022/08/02 10:54:19;;;;;;;;;;;26.20;52.00;;;;;;5020930;28;19925;-70
2022/08/02 10:56:46;;;;;;;;;;;26.30;51.80;;;;;;5038168;28;19961;-70
2022/08/02 10:59:26;;;;;;;;;;;26.30;51.70;;;;;;5026843;28;19926;-72
2022/08/02 11:02:00;;;;;;;;;;;26.40;51.80;;;;;;5025476;28;19932;-69
2022/08/02 11:04:28;;;;;;;;;;;26.50;52.70;;;;;;5026479;28;20465;-70
2022/08/02 11:07:08;;;;;;;;;;;26.60;51.70;;;;;;5023252;28;20345;-69
2022/08/02 11:09:35;;;;;;;;;;;26.60;51.20;;;;;;5036212;28;20282;-70
2022/08/02 11:12:03;;;;;;;;;;;26.70;51.20;;;;;;5025755;28;19972;-71
2022/08/02 11:14:30;;;;;;;;;;;26.80;52.30;;;;;;5037080;28;19936;-70
2022/08/02 11:17:06;;;;;;;;;;;26.90;51.20;;;;;;5017510;28;19926;-72
2022/08/02 11:19:33;;;;;;;;;;;26.90;50.50;;;;;;5023377;28;20372;-73
2022/08/02 11:22:00;;;;;;;;;;;27.00;50.70;;;;;;5027500;28;20827;-71
2022/08/02 11:24:30;;;;;;;;;;;27.10;50.10;;;;;;5038208;28;19976;-72
2022/08/02 11:26:57;;;;;;;;;;;27.10;50.20;;;;;;5027069;28;19925;-70
2022/08/02 11:29:31;;;;;;;;;;;27.20;49.90;;;;;;5031808;28;19925;-69
2022/08/02 11:31:58;;;;;;;;;;;27.20;49.50;;;;;;5022026;28;19925;-69
2022/08/02 11:34:25;;;;;;;;;;;27.30;49.30;;;;;;5022077;28;20401;-69
2022/08/02 11:36:52;;;;;;;;;;;27.40;49.20;;;;;;5035463;28;19929;-70
2022/08/02 11:39:20;;;;;;;;;;;27.50;49.40;;;;;;5033827;28;19929;-70
2022/08/02 11:41:51;;;;;;;;;;;27.60;48.90;;;;;;5036104;28;19925;-71
2022/08/02 11:44:18;;;;;;;;;;;27.60;47.80;;;;;;5021531;28;19933;-70
2022/08/02 11:46:45;;;;;;;;;;;27.70;47.90;;;;;;5025524;28;20008;-71
2022/08/02 11:49:15;;;;;;;;;;;27.70;47.60;;;;;;5035782;28;19947;-70
2022/08/02 11:51:56;;;;;;;;;;;27.80;47.60;;;;;;5021143;28;19936;-71
2022/08/02 11:54:27;;;;;;;;;;;27.80;48.00;;;;;;5019552;28;19932;-70
2022/08/02 11:56:55;;;;;;;;;;;27.90;47.60;;;;;;5034017;28;20456;-70
2022/08/02 11:59:21;;;;;;;;;;;28.00;47.80;;;;;;5023038;28;19925;-70
2022/08/02 12:01:48;;;;;;;;;;;28.00;47.80;;;;;;5019523;28;19926;-70
2022/08/02 12:04:19;;;;;;;;;;;28.10;48.10;;;;;;5038154;28;19925;-70
2022/08/02 12:06:54;;;;;;;;;;;28.10;47.30;;;;;;5029067;28;19933;-70
2022/08/02 12:09:21;;;;;;;;;;;28.10;47.40;;;;;;5034142;28;19925;-70
2022/08/02 12:11:48;;;;;;;;;;;28.10;47.70;;;;;;5028092;28;19935;-70
2022/08/02 12:14:16;;;;;;;;;;;28.20;47.30;;;;;;5036092;28;20308;-70
2022/08/02 12:19:28;;;;;;;;;;;28.20;47.30;;;;;;5023911;28;19928;-73
2022/08/02 12:22:08;;;;;;;;;;;28.20;46.90;;;;;;5032442;28;19925;-70
2022/08/02 12:24:34;;;;;;;;;;;28.20;47.20;;;;;;5035112;28;19944;-70
2022/08/02 12:27:01;;;;;;;;;;;28.20;47.00;;;;;;5032777;28;19929;-71
2022/08/02 12:29:33;;;;;;;;;;;28.30;46.60;;;;;;5030085;28;19925;-70
2022/08/02 12:32:00;;;;;;;;;;;28.30;46.60;;;;;;5017502;28;19929;-70
2022/08/02 12:34:27;;;;;;;;;;;28.40;47.10;;;;;;5015423;28;19940;-70
2022/08/02 12:36:58;;;;;;;;;;;28.40;47.10;;;;;;5031357;28;20269;-69
2022/08/02 12:39:33;;;;;;;;;;;28.50;47.40;;;;;;5029532;28;19929;-69
2022/08/02 12:42:00;;;;;;;;;;;28.60;46.50;;;;;;5031864;28;19928;-72
2022/08/02 12:44:27;;;;;;;;;;;28.70;46.30;;;;;;5020906;28;20401;-70
2022/08/02 12:47:00;;;;;;;;;;;28.80;45.80;;;;;;5017997;28;19932;-71
2022/08/02 12:49:26;;;;;;;;;;;28.80;45.60;;;;;;5034563;28;19982;-72
2022/08/02 12:51:53;;;;;;;;;;;28.90;45.80;;;;;;5028316;28;19979;-70
2022/08/02 12:54:20;;;;;;;;;;;28.90;45.30;;;;;;5017935;28;19929;-71
2022/08/02 12:56:47;;;;;;;;;;;29.00;45.10;;;;;;5039398;28;19925;-71
2022/08/02 12:59:14;;;;;;;;;;;29.10;44.80;;;;;;5017867;28;19929;-69
2022/08/02 13:01:40;;;;;;;;;;;29.10;44.70;;;;;;5018440;28;19932;-71
2022/08/02 13:04:08;;;;;;;;;;;29.20;45.10;;;;;;5026835;28;19928;-72
2022/08/02 13:06:35;;;;;;;;;;;29.20;44.80;;;;;;5038838;28;19952;-70
2022/08/02 13:09:03;;;;;;;;;;;29.30;45.40;;;;;;5026917;28;20308;-71
2022/08/02 13:11:30;;;;;;;;;;;29.30;45.70;;;;;;5044061;28;19925;-70
2022/08/02 13:13:56;;;;;;;;;;;29.40;45.30;;;;;;5018194;28;19936;-70
2022/08/02 13:16:23;;;;;;;;;;;29.40;44.90;;;;;;5023609;28;19925;-72
2022/08/02 13:18:50;;;;;;;;;;;29.50;44.50;;;;;;5018622;28;20015;-73
2022/08/02 13:21:18;;;;;;;;;;;29.50;43.80;;;;;;5028633;28;19933;-71
2022/08/02 13:23:44;;;;;;;;;;;29.60;43.90;;;;;;5032561;28;19933;-72
2022/08/02 13:26:11;;;;;;;;;;;29.70;44.20;;;;;;5032114;28;20013;-71
2022/08/02 13:28:41;;;;;;;;;;;29.70;44.50;;;;;;5014553;28;19925;-69
2022/08/02 13:31:07;;;;;;;;;;;29.70;43.70;;;;;;5021180;28;19929;-71
2022/08/02 13:33:34;;;;;;;;;;;29.80;44.60;;;;;;5027908;28;19929;-70
2022/08/02 13:36:00;;;;;;;;;;;29.80;44.60;;;;;;5038595;28;19939;-70
2022/08/02 13:38:28;;;;;;;;;;;29.80;43.90;;;;;;5022945;28;19932;-71
2022/08/02 13:41:11;;;;;;;;;;;29.90;43.90;;;;;;5034224;28;19926;-69
2022/08/02 13:43:38;;;;;;;;;;;29.90;43.90;;;;;;5020177;28;19955;-71
2022/08/02 13:46:05;;;;;;;;;;;30.00;42.80;;;;;;5021135;28;19933;-70
2022/08/02 13:48:32;;;;;;;;;;;30.00;43.00;;;;;;5031366;28;20007;-71
2022/08/02 13:50:59;;;;;;;;;;;30.10;42.90;;;;;;5026580;28;20035;-70
2022/08/02 13:53:26;;;;;;;;;;;30.10;43.00;;;;;;5019886;28;19929;-70
2022/08/02 13:55:53;;;;;;;;;;;30.20;44.00;;;;;;5024218;28;19971;-72
2022/08/02 13:58:20;;;;;;;;;;;30.30;43.40;;;;;;5020481;28;19925;-71
2022/08/02 14:00:47;;;;;;;;;;;30.30;43.10;;;;;;5019315;28;19929;-72
2022/08/02 14:03:13;;;;;;;;;;;30.40;42.40;;;;;;5028859;28;19932;-72
2022/08/02 14:05:41;;;;;;;;;;;30.50;42.50;;;;;;5033832;28;19929;-69
2022/08/02 14:08:08;;;;;;;;;;;30.50;43.80;;;;;;5019758;28;19936;-70
2022/08/02 14:10:35;;;;;;;;;;;30.60;43.10;;;;;;5038089;28;19969;-70
2022/08/02 14:13:02;;;;;;;;;;;30.60;42.10;;;;;;5028163;28;20377;-71
2022/08/02 14:15:29;;;;;;;;;;;30.70;41.70;;;;;;5022200;28;19932;-71
2022/08/02 14:17:55;;;;;;;;;;;30.80;40.60;;;;;;5020376;28;19925;-73
2022/08/02 14:20:22;;;;;;;;;;;30.80;41.00;;;;;;5018622;28;19932;-71
2022/08/02 14:22:49;;;;;;;;;;;30.90;41.30;;;;;;5036014;28;19925;-69
2022/08/02 14:25:15;;;;;;;;;;;31.00;41.70;;;;;;5029211;28;19925;-71